sensor_id;sensor_type;location;lat;lon;timestamp;P1;durP1;ratioP1;P2;durP2;ratioP2
63807;SDS011;49961;43.970;22.868;2023-08-06T00:00:35;2.47;;;1.97;;
63807;SDS011;49961;43.970;22.868;2023-08-06T00:01:36;2.50;;;1.70;;
63807;SDS011;49961;43.970;22.868;2023-08-06T00:02:36;4.50;;;1.53;;
63807;SDS011;49961;43.970;22.868;2023-08-06T00:03:36;3.33;;;1.50;;
63807;SDS011;49961;43.970;22.868;2023-08-06T00:04:37;3.80;;;1.70;;
63807;SDS011;49961;43.970;22.868;2023-08-06T00:05:37;2.50;;;1.50;;
63807;SDS011;49961;43.970;22.868;2023-08-06T00:06:41;3.80;;;1.70;;
63807;SDS011;49961;43.970;22.868;2023-08-06T00:07:42;2.27;;;1.60;;
63807;SDS011;49961;43.970;22.868;2023-08-06T00:08:42;4.40;;;1.80;;
63807;SDS011;49961;43.970;22.868;2023-08-06T00:09:43;3.60;;;1.87;;
63807;SDS011;49961;43.970;22.868;2023-08-06T00:10:43;3.87;;;1.80;;
63807;SDS011;49961;43.970;22.868;2023-08-06T00:11:43;3.57;;;1.50;;
63807;SDS011;49961;43.970;22.868;2023-08-06T00:12:46;2.37;;;1.50;;
63807;SDS011;49961;43.970;22.868;2023-08-06T00:13:47;3.20;;;1.60;;
63807;SDS011;49961;43.970;22.868;2023-08-06T00:14:50;2.90;;;1.70;;
63807;SDS011;49961;43.970;22.868;2023-08-06T00:15:51;3.13;;;1.30;;
63807;SDS011;49961;43.970;22.868;2023-08-06T00:16:52;6.70;;;1.80;;
63807;SDS011;49961;43.970;22.868;2023-08-06T00:17:52;4.20;;;1.70;;
63807;SDS011;49961;43.970;22.868;2023-08-06T00:18:52;4.40;;;1.50;;
63807;SDS011;49961;43.970;22.868;2023-08-06T00:19:53;3.70;;;1.50;;
63807;SDS011;49961;43.970;22.868;2023-08-06T00:20:53;4.03;;;1.50;;
63807;SDS011;49961;43.970;22.868;2023-08-06T00:21:54;3.33;;;1.80;;
63807;SDS011;49961;43.970;22.868;2023-08-06T00:22:54;3.77;;;1.90;;
63807;SDS011;49961;43.970;22.868;2023-08-06T00:23:55;4.07;;;1.70;;
63807;SDS011;49961;43.970;22.868;2023-08-06T00:24:55;3.57;;;1.50;;
63807;SDS011;49961;43.970;22.868;2023-08-06T00:25:57;4.53;;;1.50;;
63807;SDS011;49961;43.970;22.868;2023-08-06T00:26:58;3.07;;;1.57;;
63807;SDS011;49961;43.970;22.868;2023-08-06T00:27:58;4.40;;;1.97;;
63807;SDS011;49961;43.970;22.868;2023-08-06T00:28:59;3.60;;;1.80;;
63807;SDS011;49961;43.970;22.868;2023-08-06T00:29:59;4.47;;;1.80;;
63807;SDS011;49961;43.970;22.868;2023-08-06T00:31:00;4.40;;;1.87;;
63807;SDS011;49961;43.970;22.868;2023-08-06T00:32:00;4.17;;;1.80;;
63807;SDS011;49961;43.970;22.868;2023-08-06T00:33:00;3.13;;;1.60;;
63807;SDS011;49961;43.970;22.868;2023-08-06T00:34:01;4.43;;;1.60;;
63807;SDS011;49961;43.970;22.868;2023-08-06T00:35:01;4.03;;;1.43;;
63807;SDS011;49961;43.970;22.868;2023-08-06T00:36:03;2.80;;;1.50;;
63807;SDS011;49961;43.970;22.868;2023-08-06T00:37:03;4.60;;;1.80;;
63807;SDS011;49961;43.970;22.868;2023-08-06T00:38:04;2.77;;;1.40;;
63807;SDS011;49961;43.970;22.868;2023-08-06T00:39:04;2.90;;;1.50;;
63807;SDS011;49961;43.970;22.868;2023-08-06T00:40:05;3.97;;;1.57;;
63807;SDS011;49961;43.970;22.868;2023-08-06T00:41:08;2.90;;;1.60;;
63807;SDS011;49961;43.970;22.868;2023-08-06T00:42:09;2.67;;;1.50;;
63807;SDS011;49961;43.970;22.868;2023-08-06T00:43:10;2.40;;;1.57;;
63807;SDS011;49961;43.970;22.868;2023-08-06T00:44:10;2.67;;;1.40;;
63807;SDS011;49961;43.970;22.868;2023-08-06T00:45:11;2.43;;;1.30;;
63807;SDS011;49961;43.970;22.868;2023-08-06T00:46:11;3.70;;;1.70;;
63807;SDS011;49961;43.970;22.868;2023-08-06T00:47:11;3.97;;;2.03;;
63807;SDS011;49961;43.970;22.868;2023-08-06T00:48:12;4.13;;;1.70;;
63807;SDS011;49961;43.970;22.868;2023-08-06T00:49:13;3.13;;;1.87;;
63807;SDS011;49961;43.970;22.868;2023-08-06T00:50:13;3.63;;;1.70;;
63807;SDS011;49961;43.970;22.868;2023-08-06T00:51:14;3.27;;;1.90;;
63807;SDS011;49961;43.970;22.868;2023-08-06T00:52:15;4.30;;;2.00;;
63807;SDS011;49961;43.970;22.868;2023-08-06T00:53:16;4.17;;;2.10;;
63807;SDS011;49961;43.970;22.868;2023-08-06T00:54:16;3.37;;;1.80;;
63807;SDS011;49961;43.970;22.868;2023-08-06T00:55:17;3.63;;;1.63;;
63807;SDS011;49961;43.970;22.868;2023-08-06T00:56:18;4.30;;;1.73;;
63807;SDS011;49961;43.970;22.868;2023-08-06T00:57:19;4.87;;;2.00;;
63807;SDS011;49961;43.970;22.868;2023-08-06T00:58:22;2.67;;;1.67;;
63807;SDS011;49961;43.970;22.868;2023-08-06T00:59:22;6.57;;;1.97;;
63807;SDS011;49961;43.970;22.868;2023-08-06T01:00:24;3.30;;;1.80;;
63807;SDS011;49961;43.970;22.868;2023-08-06T01:01:25;2.47;;;1.33;;
63807;SDS011;49961;43.970;22.868;2023-08-06T01:02:25;3.80;;;1.67;;
63807;SDS011;49961;43.970;22.868;2023-08-06T01:03:25;3.57;;;1.70;;
63807;SDS011;49961;43.970;22.868;2023-08-06T01:04:26;3.93;;;1.70;;
63807;SDS011;49961;43.970;22.868;2023-08-06T01:05:26;3.37;;;1.70;;
63807;SDS011;49961;43.970;22.868;2023-08-06T01:06:40;2.53;;;1.40;;
63807;SDS011;49961;43.970;22.868;2023-08-06T01:09:21;2.60;;;1.30;;
63807;SDS011;49961;43.970;22.868;2023-08-06T01:11:00;4.07;;;1.40;;
63807;SDS011;49961;43.970;22.868;2023-08-06T01:12:25;3.37;;;1.60;;
63807;SDS011;49961;43.970;22.868;2023-08-06T01:15:55;2.97;;;1.40;;
63807;SDS011;49961;43.970;22.868;2023-08-06T01:16:58;3.30;;;1.40;;
63807;SDS011;49961;43.970;22.868;2023-08-06T01:17:58;2.53;;;1.30;;
63807;SDS011;49961;43.970;22.868;2023-08-06T01:18:59;3.20;;;1.40;;
63807;SDS011;49961;43.970;22.868;2023-08-06T01:20:00;3.80;;;1.30;;
63807;SDS011;49961;43.970;22.868;2023-08-06T01:21:00;2.60;;;1.20;;
63807;SDS011;49961;43.970;22.868;2023-08-06T01:22:01;4.07;;;1.80;;
63807;SDS011;49961;43.970;22.868;2023-08-06T01:23:01;3.00;;;1.40;;
63807;SDS011;49961;43.970;22.868;2023-08-06T01:24:02;2.80;;;1.20;;
63807;SDS011;49961;43.970;22.868;2023-08-06T01:25:03;2.37;;;1.30;;
63807;SDS011;49961;43.970;22.868;2023-08-06T01:28:33;2.40;;;1.33;;
63807;SDS011;49961;43.970;22.868;2023-08-06T01:30:03;4.10;;;1.10;;
63807;SDS011;49961;43.970;22.868;2023-08-06T01:31:02;4.27;;;1.03;;
63807;SDS011;49961;43.970;22.868;2023-08-06T01:32:08;3.23;;;1.23;;
63807;SDS011;49961;43.970;22.868;2023-08-06T01:33:14;3.20;;;1.27;;
63807;SDS011;49961;43.970;22.868;2023-08-06T01:34:23;2.53;;;1.13;;
63807;SDS011;49961;43.970;22.868;2023-08-06T01:35:26;5.30;;;1.17;;
63807;SDS011;49961;43.970;22.868;2023-08-06T01:36:29;2.10;;;1.27;;
63807;SDS011;49961;43.970;22.868;2023-08-06T01:37:31;6.33;;;1.30;;
63807;SDS011;49961;43.970;22.868;2023-08-06T01:38:31;2.73;;;1.20;;
63807;SDS011;49961;43.970;22.868;2023-08-06T01:39:35;2.47;;;1.20;;
63807;SDS011;49961;43.970;22.868;2023-08-06T01:40:35;1.97;;;1.00;;
63807;SDS011;49961;43.970;22.868;2023-08-06T01:41:36;1.63;;;1.13;;
63807;SDS011;49961;43.970;22.868;2023-08-06T01:42:36;6.50;;;1.43;;
63807;SDS011;49961;43.970;22.868;2023-08-06T01:43:37;2.57;;;1.37;;
63807;SDS011;49961;43.970;22.868;2023-08-06T01:44:37;2.43;;;1.03;;
63807;SDS011;49961;43.970;22.868;2023-08-06T01:45:38;2.60;;;1.17;;
63807;SDS011;49961;43.970;22.868;2023-08-06T01:46:38;3.57;;;1.40;;
63807;SDS011;49961;43.970;22.868;2023-08-06T01:47:38;3.63;;;1.37;;
63807;SDS011;49961;43.970;22.868;2023-08-06T01:48:39;4.00;;;1.10;;
63807;SDS011;49961;43.970;22.868;2023-08-06T01:49:39;2.50;;;1.37;;
63807;SDS011;49961;43.970;22.868;2023-08-06T01:50:40;2.30;;;1.20;;
63807;SDS011;49961;43.970;22.868;2023-08-06T01:51:40;3.23;;;1.13;;
63807;SDS011;49961;43.970;22.868;2023-08-06T01:52:41;4.50;;;1.23;;
63807;SDS011;49961;43.970;22.868;2023-08-06T01:53:41;2.83;;;1.07;;
63807;SDS011;49961;43.970;22.868;2023-08-06T01:54:41;2.30;;;1.30;;
63807;SDS011;49961;43.970;22.868;2023-08-06T01:55:42;2.60;;;1.20;;
63807;SDS011;49961;43.970;22.868;2023-08-06T01:56:48;4.40;;;1.50;;
63807;SDS011;49961;43.970;22.868;2023-08-06T01:57:48;6.40;;;1.30;;
63807;SDS011;49961;43.970;22.868;2023-08-06T01:58:48;2.03;;;1.17;;
63807;SDS011;49961;43.970;22.868;2023-08-06T01:59:49;5.23;;;1.37;;
63807;SDS011;49961;43.970;22.868;2023-08-06T02:00:49;3.00;;;1.10;;
63807;SDS011;49961;43.970;22.868;2023-08-06T02:01:50;1.70;;;1.20;;
63807;SDS011;49961;43.970;22.868;2023-08-06T02:02:50;3.53;;;1.33;;
63807;SDS011;49961;43.970;22.868;2023-08-06T02:03:50;2.10;;;1.37;;
63807;SDS011;49961;43.970;22.868;2023-08-06T02:04:51;2.93;;;1.50;;
63807;SDS011;49961;43.970;22.868;2023-08-06T02:05:51;3.20;;;1.20;;
63807;SDS011;49961;43.970;22.868;2023-08-06T02:06:52;4.23;;;1.30;;
63807;SDS011;49961;43.970;22.868;2023-08-06T02:07:52;2.87;;;1.40;;
63807;SDS011;49961;43.970;22.868;2023-08-06T02:08:52;3.57;;;1.30;;
63807;SDS011;49961;43.970;22.868;2023-08-06T02:09:53;3.13;;;1.37;;
63807;SDS011;49961;43.970;22.868;2023-08-06T02:10:53;2.77;;;1.43;;
63807;SDS011;49961;43.970;22.868;2023-08-06T02:11:54;3.87;;;1.50;;
63807;SDS011;49961;43.970;22.868;2023-08-06T02:12:54;3.40;;;1.30;;
63807;SDS011;49961;43.970;22.868;2023-08-06T02:13:54;6.47;;;1.47;;
63807;SDS011;49961;43.970;22.868;2023-08-06T02:14:55;2.80;;;1.10;;
63807;SDS011;49961;43.970;22.868;2023-08-06T02:15:55;3.37;;;1.33;;
63807;SDS011;49961;43.970;22.868;2023-08-06T02:16:56;2.83;;;1.30;;
63807;SDS011;49961;43.970;22.868;2023-08-06T02:17:56;5.43;;;1.40;;
63807;SDS011;49961;43.970;22.868;2023-08-06T02:18:57;3.73;;;1.20;;
63807;SDS011;49961;43.970;22.868;2023-08-06T02:19:57;2.50;;;1.50;;
63807;SDS011;49961;43.970;22.868;2023-08-06T02:20:58;3.07;;;1.40;;
63807;SDS011;49961;43.970;22.868;2023-08-06T02:21:59;4.13;;;1.37;;
63807;SDS011;49961;43.970;22.868;2023-08-06T02:22:59;4.27;;;1.60;;
63807;SDS011;49961;43.970;22.868;2023-08-06T02:23:59;2.60;;;1.20;;
63807;SDS011;49961;43.970;22.868;2023-08-06T02:25:00;2.30;;;1.23;;
63807;SDS011;49961;43.970;22.868;2023-08-06T02:26:02;2.80;;;1.20;;
63807;SDS011;49961;43.970;22.868;2023-08-06T02:27:03;2.30;;;1.30;;
63807;SDS011;49961;43.970;22.868;2023-08-06T02:28:04;4.40;;;1.30;;
63807;SDS011;49961;43.970;22.868;2023-08-06T02:29:04;2.03;;;1.27;;
63807;SDS011;49961;43.970;22.868;2023-08-06T02:30:05;3.73;;;1.30;;
63807;SDS011;49961;43.970;22.868;2023-08-06T02:31:06;4.30;;;1.33;;
63807;SDS011;49961;43.970;22.868;2023-08-06T02:32:07;4.70;;;1.40;;
63807;SDS011;49961;43.970;22.868;2023-08-06T02:33:07;2.23;;;1.30;;
63807;SDS011;49961;43.970;22.868;2023-08-06T02:34:08;3.07;;;1.40;;
63807;SDS011;49961;43.970;22.868;2023-08-06T02:35:08;5.20;;;1.50;;
63807;SDS011;49961;43.970;22.868;2023-08-06T02:36:08;2.33;;;1.50;;
63807;SDS011;49961;43.970;22.868;2023-08-06T02:37:09;2.30;;;1.20;;
63807;SDS011;49961;43.970;22.868;2023-08-06T02:38:09;3.47;;;1.67;;
63807;SDS011;49961;43.970;22.868;2023-08-06T02:39:10;3.00;;;1.10;;
63807;SDS011;49961;43.970;22.868;2023-08-06T02:40:10;2.43;;;1.20;;
63807;SDS011;49961;43.970;22.868;2023-08-06T02:41:11;3.57;;;1.40;;
63807;SDS011;49961;43.970;22.868;2023-08-06T02:42:11;3.17;;;1.43;;
63807;SDS011;49961;43.970;22.868;2023-08-06T02:43:12;2.40;;;1.17;;
63807;SDS011;49961;43.970;22.868;2023-08-06T02:44:13;1.90;;;1.33;;
63807;SDS011;49961;43.970;22.868;2023-08-06T02:45:13;4.80;;;1.40;;
63807;SDS011;49961;43.970;22.868;2023-08-06T02:46:14;3.33;;;1.57;;
63807;SDS011;49961;43.970;22.868;2023-08-06T02:47:14;1.60;;;1.07;;
63807;SDS011;49961;43.970;22.868;2023-08-06T02:48:14;1.83;;;1.20;;
63807;SDS011;49961;43.970;22.868;2023-08-06T02:49:15;2.80;;;1.40;;
63807;SDS011;49961;43.970;22.868;2023-08-06T02:50:15;4.37;;;1.50;;
63807;SDS011;49961;43.970;22.868;2023-08-06T02:51:16;3.27;;;1.43;;
63807;SDS011;49961;43.970;22.868;2023-08-06T02:52:16;2.97;;;1.30;;
63807;SDS011;49961;43.970;22.868;2023-08-06T02:53:16;2.77;;;1.30;;
63807;SDS011;49961;43.970;22.868;2023-08-06T02:54:17;4.50;;;1.53;;
63807;SDS011;49961;43.970;22.868;2023-08-06T02:55:18;1.83;;;1.30;;
63807;SDS011;49961;43.970;22.868;2023-08-06T02:56:19;3.57;;;1.40;;
63807;SDS011;49961;43.970;22.868;2023-08-06T02:57:19;2.63;;;1.30;;
63807;SDS011;49961;43.970;22.868;2023-08-06T02:58:19;3.57;;;1.40;;
63807;SDS011;49961;43.970;22.868;2023-08-06T02:59:23;1.97;;;1.40;;
63807;SDS011;49961;43.970;22.868;2023-08-06T03:00:23;2.67;;;1.30;;
63807;SDS011;49961;43.970;22.868;2023-08-06T03:01:24;1.87;;;1.30;;
63807;SDS011;49961;43.970;22.868;2023-08-06T03:02:26;1.50;;;1.10;;
63807;SDS011;49961;43.970;22.868;2023-08-06T03:03:26;3.07;;;1.37;;
63807;SDS011;49961;43.970;22.868;2023-08-06T03:04:27;2.10;;;1.27;;
63807;SDS011;49961;43.970;22.868;2023-08-06T03:05:27;2.80;;;1.20;;
63807;SDS011;49961;43.970;22.868;2023-08-06T03:06:28;2.80;;;1.60;;
63807;SDS011;49961;43.970;22.868;2023-08-06T03:07:28;2.03;;;1.30;;
63807;SDS011;49961;43.970;22.868;2023-08-06T03:08:29;3.90;;;1.40;;
63807;SDS011;49961;43.970;22.868;2023-08-06T03:09:29;2.77;;;1.30;;
63807;SDS011;49961;43.970;22.868;2023-08-06T03:10:30;3.43;;;1.63;;
63807;SDS011;49961;43.970;22.868;2023-08-06T03:11:30;2.87;;;1.37;;
63807;SDS011;49961;43.970;22.868;2023-08-06T03:12:31;1.77;;;1.27;;
63807;SDS011;49961;43.970;22.868;2023-08-06T03:13:31;2.10;;;1.30;;
63807;SDS011;49961;43.970;22.868;2023-08-06T03:14:31;2.00;;;1.30;;
63807;SDS011;49961;43.970;22.868;2023-08-06T03:15:32;3.23;;;1.30;;
63807;SDS011;49961;43.970;22.868;2023-08-06T03:16:32;2.40;;;1.60;;
63807;SDS011;49961;43.970;22.868;2023-08-06T03:17:33;6.20;;;1.47;;
63807;SDS011;49961;43.970;22.868;2023-08-06T03:18:33;3.63;;;1.40;;
63807;SDS011;49961;43.970;22.868;2023-08-06T03:19:33;5.40;;;1.70;;
63807;SDS011;49961;43.970;22.868;2023-08-06T03:20:34;3.60;;;1.70;;
63807;SDS011;49961;43.970;22.868;2023-08-06T03:21:34;3.30;;;1.70;;
63807;SDS011;49961;43.970;22.868;2023-08-06T03:22:35;2.17;;;1.27;;
63807;SDS011;49961;43.970;22.868;2023-08-06T03:23:35;5.80;;;1.60;;
63807;SDS011;49961;43.970;22.868;2023-08-06T03:24:35;3.93;;;1.60;;
63807;SDS011;49961;43.970;22.868;2023-08-06T03:25:36;2.43;;;1.30;;
63807;SDS011;49961;43.970;22.868;2023-08-06T03:26:36;8.30;;;1.70;;
63807;SDS011;49961;43.970;22.868;2023-08-06T03:27:37;4.93;;;1.60;;
63807;SDS011;49961;43.970;22.868;2023-08-06T03:28:37;2.50;;;1.30;;
63807;SDS011;49961;43.970;22.868;2023-08-06T03:29:38;2.37;;;1.47;;
63807;SDS011;49961;43.970;22.868;2023-08-06T03:30:38;3.67;;;1.30;;
63807;SDS011;49961;43.970;22.868;2023-08-06T03:31:39;2.20;;;1.50;;
63807;SDS011;49961;43.970;22.868;2023-08-06T03:32:39;2.90;;;1.23;;
63807;SDS011;49961;43.970;22.868;2023-08-06T03:33:40;3.90;;;1.43;;
63807;SDS011;49961;43.970;22.868;2023-08-06T03:34:40;1.77;;;1.40;;
63807;SDS011;49961;43.970;22.868;2023-08-06T03:35:40;3.07;;;1.60;;
63807;SDS011;49961;43.970;22.868;2023-08-06T03:36:41;3.43;;;1.60;;
63807;SDS011;49961;43.970;22.868;2023-08-06T03:37:41;3.93;;;1.33;;
63807;SDS011;49961;43.970;22.868;2023-08-06T03:38:42;3.37;;;1.50;;
63807;SDS011;49961;43.970;22.868;2023-08-06T03:39:42;2.30;;;1.50;;
63807;SDS011;49961;43.970;22.868;2023-08-06T03:40:42;2.43;;;1.47;;
63807;SDS011;49961;43.970;22.868;2023-08-06T03:41:43;4.00;;;1.40;;
63807;SDS011;49961;43.970;22.868;2023-08-06T03:42:43;5.90;;;1.60;;
63807;SDS011;49961;43.970;22.868;2023-08-06T03:43:44;3.20;;;1.50;;
63807;SDS011;49961;43.970;22.868;2023-08-06T03:44:44;3.20;;;1.70;;
63807;SDS011;49961;43.970;22.868;2023-08-06T03:45:45;2.43;;;1.87;;
63807;SDS011;49961;43.970;22.868;2023-08-06T03:46:45;2.57;;;1.70;;
63807;SDS011;49961;43.970;22.868;2023-08-06T03:47:45;3.73;;;2.00;;
63807;SDS011;49961;43.970;22.868;2023-08-06T03:48:46;3.60;;;1.60;;
63807;SDS011;49961;43.970;22.868;2023-08-06T03:49:46;2.43;;;1.47;;
63807;SDS011;49961;43.970;22.868;2023-08-06T03:50:47;5.87;;;1.80;;
63807;SDS011;49961;43.970;22.868;2023-08-06T03:51:47;3.93;;;1.90;;
63807;SDS011;49961;43.970;22.868;2023-08-06T03:52:48;5.23;;;1.83;;
63807;SDS011;49961;43.970;22.868;2023-08-06T03:53:48;5.53;;;1.53;;
63807;SDS011;49961;43.970;22.868;2023-08-06T03:54:49;2.63;;;1.40;;
63807;SDS011;49961;43.970;22.868;2023-08-06T03:55:49;2.07;;;1.57;;
63807;SDS011;49961;43.970;22.868;2023-08-06T03:56:49;5.30;;;1.60;;
63807;SDS011;49961;43.970;22.868;2023-08-06T03:57:50;3.03;;;1.60;;
63807;SDS011;49961;43.970;22.868;2023-08-06T03:58:50;2.73;;;1.40;;
63807;SDS011;49961;43.970;22.868;2023-08-06T03:59:51;2.37;;;1.60;;
63807;SDS011;49961;43.970;22.868;2023-08-06T04:01:01;2.53;;;1.60;;
63807;SDS011;49961;43.970;22.868;2023-08-06T04:02:02;2.80;;;1.77;;
63807;SDS011;49961;43.970;22.868;2023-08-06T04:03:03;4.03;;;1.60;;
63807;SDS011;49961;43.970;22.868;2023-08-06T04:04:03;3.57;;;1.70;;
63807;SDS011;49961;43.970;22.868;2023-08-06T04:05:04;5.07;;;1.53;;
63807;SDS011;49961;43.970;22.868;2023-08-06T04:06:04;2.47;;;1.50;;
63807;SDS011;49961;43.970;22.868;2023-08-06T04:07:06;3.90;;;1.90;;
63807;SDS011;49961;43.970;22.868;2023-08-06T04:08:06;5.23;;;1.83;;
63807;SDS011;49961;43.970;22.868;2023-08-06T04:09:06;2.80;;;1.50;;
63807;SDS011;49961;43.970;22.868;2023-08-06T04:10:07;2.83;;;1.80;;
63807;SDS011;49961;43.970;22.868;2023-08-06T04:11:08;4.57;;;1.77;;
63807;SDS011;49961;43.970;22.868;2023-08-06T04:12:09;3.60;;;1.60;;
63807;SDS011;49961;43.970;22.868;2023-08-06T04:13:09;3.87;;;1.63;;
63807;SDS011;49961;43.970;22.868;2023-08-06T04:14:10;3.70;;;1.50;;
63807;SDS011;49961;43.970;22.868;2023-08-06T04:15:10;3.43;;;1.80;;
63807;SDS011;49961;43.970;22.868;2023-08-06T04:16:10;2.50;;;1.53;;
63807;SDS011;49961;43.970;22.868;2023-08-06T04:17:11;3.40;;;1.87;;
63807;SDS011;49961;43.970;22.868;2023-08-06T04:18:11;2.90;;;2.10;;
63807;SDS011;49961;43.970;22.868;2023-08-06T04:19:12;2.87;;;1.90;;
63807;SDS011;49961;43.970;22.868;2023-08-06T04:20:12;3.33;;;1.83;;
63807;SDS011;49961;43.970;22.868;2023-08-06T04:21:12;4.80;;;1.80;;
63807;SDS011;49961;43.970;22.868;2023-08-06T04:22:13;3.87;;;2.00;;
63807;SDS011;49961;43.970;22.868;2023-08-06T04:23:14;2.40;;;1.70;;
63807;SDS011;49961;43.970;22.868;2023-08-06T04:24:15;6.97;;;2.03;;
63807;SDS011;49961;43.970;22.868;2023-08-06T04:25:15;4.53;;;2.00;;
63807;SDS011;49961;43.970;22.868;2023-08-06T04:26:20;3.00;;;1.60;;
63807;SDS011;49961;43.970;22.868;2023-08-06T04:27:21;3.57;;;1.70;;
63807;SDS011;49961;43.970;22.868;2023-08-06T04:28:21;7.60;;;2.30;;
63807;SDS011;49961;43.970;22.868;2023-08-06T04:29:22;3.87;;;2.10;;
63807;SDS011;49961;43.970;22.868;2023-08-06T04:30:22;5.53;;;2.10;;
63807;SDS011;49961;43.970;22.868;2023-08-06T04:31:22;3.93;;;2.00;;
63807;SDS011;49961;43.970;22.868;2023-08-06T04:32:23;6.87;;;2.40;;
63807;SDS011;49961;43.970;22.868;2023-08-06T04:33:24;3.00;;;1.90;;
63807;SDS011;49961;43.970;22.868;2023-08-06T04:34:25;2.57;;;1.60;;
63807;SDS011;49961;43.970;22.868;2023-08-06T04:35:25;2.20;;;2.00;;
63807;SDS011;49961;43.970;22.868;2023-08-06T04:36:26;5.83;;;2.23;;
63807;SDS011;49961;43.970;22.868;2023-08-06T04:37:26;4.13;;;2.10;;
63807;SDS011;49961;43.970;22.868;2023-08-06T04:38:26;5.70;;;1.93;;
63807;SDS011;49961;43.970;22.868;2023-08-06T04:39:27;2.23;;;1.70;;
63807;SDS011;49961;43.970;22.868;2023-08-06T04:40:27;3.07;;;1.80;;
63807;SDS011;49961;43.970;22.868;2023-08-06T04:41:28;7.23;;;2.20;;
63807;SDS011;49961;43.970;22.868;2023-08-06T04:42:28;5.33;;;2.17;;
63807;SDS011;49961;43.970;22.868;2023-08-06T04:43:29;5.50;;;2.13;;
63807;SDS011;49961;43.970;22.868;2023-08-06T04:44:29;3.07;;;1.97;;
63807;SDS011;49961;43.970;22.868;2023-08-06T04:45:30;3.60;;;2.23;;
63807;SDS011;49961;43.970;22.868;2023-08-06T04:46:30;4.63;;;2.37;;
63807;SDS011;49961;43.970;22.868;2023-08-06T04:47:30;4.73;;;1.80;;
63807;SDS011;49961;43.970;22.868;2023-08-06T04:48:31;6.53;;;2.23;;
63807;SDS011;49961;43.970;22.868;2023-08-06T04:49:31;4.30;;;2.13;;
63807;SDS011;49961;43.970;22.868;2023-08-06T04:50:32;5.90;;;2.50;;
63807;SDS011;49961;43.970;22.868;2023-08-06T04:51:32;3.77;;;2.10;;
63807;SDS011;49961;43.970;22.868;2023-08-06T04:52:32;2.67;;;1.87;;
63807;SDS011;49961;43.970;22.868;2023-08-06T04:53:33;5.23;;;2.37;;
63807;SDS011;49961;43.970;22.868;2023-08-06T04:54:33;3.20;;;1.80;;
63807;SDS011;49961;43.970;22.868;2023-08-06T04:55:34;3.93;;;2.00;;
63807;SDS011;49961;43.970;22.868;2023-08-06T04:56:34;2.97;;;2.10;;
63807;SDS011;49961;43.970;22.868;2023-08-06T04:57:34;3.20;;;2.00;;
63807;SDS011;49961;43.970;22.868;2023-08-06T04:58:35;4.87;;;2.00;;
63807;SDS011;49961;43.970;22.868;2023-08-06T04:59:35;6.27;;;2.10;;
63807;SDS011;49961;43.970;22.868;2023-08-06T05:00:36;4.87;;;2.30;;
63807;SDS011;49961;43.970;22.868;2023-08-06T05:01:36;3.63;;;2.00;;
63807;SDS011;49961;43.970;22.868;2023-08-06T05:02:37;2.63;;;1.93;;
63807;SDS011;49961;43.970;22.868;2023-08-06T05:03:38;5.10;;;2.53;;
63807;SDS011;49961;43.970;22.868;2023-08-06T05:04:39;4.63;;;1.67;;
63807;SDS011;49961;43.970;22.868;2023-08-06T05:05:40;2.87;;;1.80;;
63807;SDS011;49961;43.970;22.868;2023-08-06T05:06:41;4.17;;;2.00;;
63807;SDS011;49961;43.970;22.868;2023-08-06T05:07:42;2.40;;;1.70;;
63807;SDS011;49961;43.970;22.868;2023-08-06T05:08:42;2.17;;;1.50;;
63807;SDS011;49961;43.970;22.868;2023-08-06T05:09:42;2.20;;;1.67;;
63807;SDS011;49961;43.970;22.868;2023-08-06T05:10:43;4.70;;;1.97;;
63807;SDS011;49961;43.970;22.868;2023-08-06T05:11:45;3.30;;;1.90;;
63807;SDS011;49961;43.970;22.868;2023-08-06T05:12:46;3.17;;;1.80;;
63807;SDS011;49961;43.970;22.868;2023-08-06T05:13:46;3.10;;;1.73;;
63807;SDS011;49961;43.970;22.868;2023-08-06T05:14:47;5.23;;;1.60;;
63807;SDS011;49961;43.970;22.868;2023-08-06T05:15:47;3.07;;;1.60;;
63807;SDS011;49961;43.970;22.868;2023-08-06T05:16:48;2.93;;;1.63;;
63807;SDS011;49961;43.970;22.868;2023-08-06T05:17:48;3.73;;;1.70;;
63807;SDS011;49961;43.970;22.868;2023-08-06T05:18:48;2.00;;;1.50;;
63807;SDS011;49961;43.970;22.868;2023-08-06T05:19:49;3.30;;;1.60;;
63807;SDS011;49961;43.970;22.868;2023-08-06T05:20:49;3.87;;;1.70;;
63807;SDS011;49961;43.970;22.868;2023-08-06T05:21:50;3.73;;;1.50;;
63807;SDS011;49961;43.970;22.868;2023-08-06T05:22:50;3.40;;;1.77;;
63807;SDS011;49961;43.970;22.868;2023-08-06T05:23:51;3.67;;;1.73;;
63807;SDS011;49961;43.970;22.868;2023-08-06T05:24:51;2.13;;;1.43;;
63807;SDS011;49961;43.970;22.868;2023-08-06T05:25:52;3.80;;;1.60;;
63807;SDS011;49961;43.970;22.868;2023-08-06T05:26:52;3.10;;;1.80;;
63807;SDS011;49961;43.970;22.868;2023-08-06T05:27:52;4.20;;;1.80;;
63807;SDS011;49961;43.970;22.868;2023-08-06T05:28:53;2.80;;;1.67;;
63807;SDS011;49961;43.970;22.868;2023-08-06T05:29:56;3.90;;;1.73;;
63807;SDS011;49961;43.970;22.868;2023-08-06T05:30:57;2.37;;;1.87;;
63807;SDS011;49961;43.970;22.868;2023-08-06T05:31:57;4.27;;;1.67;;
63807;SDS011;49961;43.970;22.868;2023-08-06T05:32:58;3.30;;;2.07;;
63807;SDS011;49961;43.970;22.868;2023-08-06T05:33:58;3.17;;;1.90;;
63807;SDS011;49961;43.970;22.868;2023-08-06T05:34:59;2.63;;;1.67;;
63807;SDS011;49961;43.970;22.868;2023-08-06T05:35:59;3.03;;;1.70;;
63807;SDS011;49961;43.970;22.868;2023-08-06T05:37:00;3.17;;;2.10;;
63807;SDS011;49961;43.970;22.868;2023-08-06T05:38:00;5.10;;;1.80;;
63807;SDS011;49961;43.970;22.868;2023-08-06T05:39:00;6.73;;;2.10;;
63807;SDS011;49961;43.970;22.868;2023-08-06T05:40:01;4.47;;;2.10;;
63807;SDS011;49961;43.970;22.868;2023-08-06T05:41:02;5.23;;;2.20;;
63807;SDS011;49961;43.970;22.868;2023-08-06T05:42:03;3.97;;;1.70;;
63807;SDS011;49961;43.970;22.868;2023-08-06T05:43:04;4.30;;;2.00;;
63807;SDS011;49961;43.970;22.868;2023-08-06T05:44:05;5.93;;;2.20;;
63807;SDS011;49961;43.970;22.868;2023-08-06T05:45:05;2.30;;;1.83;;
63807;SDS011;49961;43.970;22.868;2023-08-06T05:46:06;2.87;;;1.90;;
63807;SDS011;49961;43.970;22.868;2023-08-06T05:47:06;2.43;;;1.80;;
63807;SDS011;49961;43.970;22.868;2023-08-06T05:48:07;6.43;;;1.77;;
63807;SDS011;49961;43.970;22.868;2023-08-06T05:49:07;3.97;;;1.90;;
63807;SDS011;49961;43.970;22.868;2023-08-06T05:50:08;3.53;;;1.73;;
63807;SDS011;49961;43.970;22.868;2023-08-06T05:51:09;2.67;;;1.80;;
63807;SDS011;49961;43.970;22.868;2023-08-06T05:52:09;5.27;;;1.97;;
63807;SDS011;49961;43.970;22.868;2023-08-06T05:53:09;3.67;;;1.93;;
63807;SDS011;49961;43.970;22.868;2023-08-06T05:54:10;5.60;;;1.90;;
63807;SDS011;49961;43.970;22.868;2023-08-06T05:55:10;3.63;;;1.70;;
63807;SDS011;49961;43.970;22.868;2023-08-06T05:56:11;2.97;;;1.70;;
63807;SDS011;49961;43.970;22.868;2023-08-06T05:57:11;3.60;;;1.70;;
63807;SDS011;49961;43.970;22.868;2023-08-06T05:58:11;6.43;;;1.67;;
63807;SDS011;49961;43.970;22.868;2023-08-06T05:59:12;5.90;;;2.07;;
63807;SDS011;49961;43.970;22.868;2023-08-06T06:00:12;2.83;;;1.37;;
63807;SDS011;49961;43.970;22.868;2023-08-06T06:01:13;3.57;;;1.70;;
63807;SDS011;49961;43.970;22.868;2023-08-06T06:02:13;4.23;;;1.60;;
63807;SDS011;49961;43.970;22.868;2023-08-06T06:03:14;3.00;;;1.53;;
63807;SDS011;49961;43.970;22.868;2023-08-06T06:04:14;1.77;;;1.40;;
63807;SDS011;49961;43.970;22.868;2023-08-06T06:05:15;4.10;;;1.57;;
63807;SDS011;49961;43.970;22.868;2023-08-06T06:06:15;3.37;;;1.40;;
63807;SDS011;49961;43.970;22.868;2023-08-06T06:07:17;4.37;;;1.47;;
63807;SDS011;49961;43.970;22.868;2023-08-06T06:08:17;3.43;;;1.27;;